Time;durP1;ratioP1;P1;durP2;ratioP2;P2;SDS_P1;SDS_P2;PMS_P1;PMS_P2;Temp;Humidity;BMP_temperature;BMP_pressure;BME280_temperature;BME280_humidity;BME280_pressure;Samples;Min_cycle;Max_cycle;Signal;HPM_P1;HPM_P2
2023/03/13 00:01:52;;;;;;;5.70;2.83;;;6.90;99.90;;;;;;5016224;28;20026;-68
2023/03/13 00:04:18;;;;;;;5.03;2.53;;;6.90;99.90;;;;;;5015743;28;20026;-68
2023/03/13 00:06:44;;;;;;;3.13;2.25;;;6.90;99.90;;;;;;5015529;28;20026;-67
2023/03/13 00:09:11;;;;;;;3.03;2.13;;;6.90;99.90;;;;;;5016623;28;20445;-67
2023/03/13 00:11:37;;;;;;;4.10;2.30;;;6.90;99.90;;;;;;5019649;28;20481;-67
2023/03/13 00:14:04;;;;;;;1.85;1.17;;;6.80;99.90;;;;;;5018218;28;20030;-68
2023/03/13 00:16:30;;;;;;;2.42;1.42;;;6.80;99.90;;;;;;5018026;28;20496;-68
2023/03/13 00:18:57;;;;;;;4.00;1.90;;;6.80;99.90;;;;;;5019774;28;20041;-68
2023/03/13 00:21:26;;;;;;;19.05;11.70;;;6.70;99.90;;;;;;5019820;28;20026;-68
2023/03/13 00:23:51;;;;;;;6.85;4.18;;;6.70;99.90;;;;;;5018247;28;20497;-68
2023/03/13 00:26:23;;;;;;;3.72;2.63;;;6.70;99.90;;;;;;5018984;28;20134;-68
2023/03/13 00:28:49;;;;;;;4.35;2.47;;;6.60;99.90;;;;;;5018569;28;20084;-68
2023/03/13 00:31:20;;;;;;;4.78;1.73;;;6.60;99.90;;;;;;5018479;28;20050;-68
2023/03/13 00:33:48;;;;;;;3.47;1.70;;;6.50;99.90;;;;;;5016709;28;20099;-68
2023/03/13 00:36:17;;;;;;;3.30;1.60;;;6.50;99.90;;;;;;5018140;28;20022;-68
2023/03/13 00:38:43;;;;;;;1.90;1.40;;;6.40;99.90;;;;;;5018172;28;20439;-68
2023/03/13 00:41:20;;;;;;;3.75;2.90;;;6.30;99.90;;;;;;5017119;28;20036;-68
2023/03/13 00:43:47;;;;;;;4.95;2.42;;;6.30;99.90;;;;;;5018432;28;20496;-68
2023/03/13 00:46:15;;;;;;;6.47;2.42;;;6.20;99.90;;;;;;5018268;28;20187;-68
2023/03/13 00:48:41;;;;;;;3.15;1.52;;;6.10;99.90;;;;;;5017766;28;20064;-68
2023/03/13 00:51:07;;;;;;;5.75;1.95;;;6.00;99.90;;;;;;5018240;28;20109;-68
2023/03/13 00:53:33;;;;;;;5.32;2.75;;;6.00;99.90;;;;;;5018887;28;20065;-68
2023/03/13 00:56:05;;;;;;;3.75;2.45;;;5.80;99.90;;;;;;5018977;28;20038;-68
2023/03/13 00:58:34;;;;;;;6.80;4.22;;;5.80;99.90;;;;;;5017439;28;20018;-68
2023/03/13 01:01:10;;;;;;;15.00;8.43;;;5.70;99.90;;;;;;5018434;28;20105;-68
2023/03/13 01:03:37;;;;;;;2.72;1.85;;;5.60;99.90;;;;;;5016777;28;20053;-68
2023/03/13 01:06:05;;;;;;;4.43;2.20;;;5.50;99.90;;;;;;5018002;28;20473;-68
2023/03/13 01:08:31;;;;;;;3.63;2.13;;;5.50;99.90;;;;;;5017685;28;20026;-68
2023/03/13 01:11:04;;;;;;;2.75;2.08;;;5.50;99.90;;;;;;5018844;28;20030;-68
2023/03/13 01:13:33;;;;;;;3.85;1.92;;;5.50;99.90;;;;;;5016989;28;20443;-68
2023/03/13 01:16:05;;;;;;;3.45;2.38;;;5.40;99.90;;;;;;5016690;28;20026;-68
2023/03/13 01:18:32;;;;;;;1.80;1.40;;;5.40;99.90;;;;;;5017783;28;20034;-68
2023/03/13 01:20:58;;;;;;;4.05;1.67;;;5.30;99.90;;;;;;5016329;28;20170;-68
2023/03/13 01:23:25;;;;;;;4.22;1.42;;;5.30;99.90;;;;;;5017171;28;20026;-68
2023/03/13 01:25:50;;;;;;;6.65;3.38;;;5.20;99.90;;;;;;5017549;28;20037;-68
2023/03/13 01:28:16;;;;;;;5.85;3.08;;;5.10;99.90;;;;;;5017468;28;20037;-68
2023/03/13 01:30:42;;;;;;;4.68;2.80;;;5.10;99.90;;;;;;5015567;28;20032;-68
2023/03/13 01:33:07;;;;;;;4.35;2.47;;;5.00;99.90;;;;;;5016894;28;20528;-68
2023/03/13 01:35:33;;;;;;;6.03;2.47;;;4.90;99.90;;;;;;5017678;28;20068;-68
2023/03/13 01:37:58;;;;;;;4.55;2.58;;;4.90;99.90;;;;;;5015953;28;20036;-68
2023/03/13 01:40:24;;;;;;;8.57;2.53;;;4.80;99.90;;;;;;5016958;28;20084;-68
2023/03/13 01:42:55;;;;;;;3.38;2.00;;;4.80;99.90;;;;;;5017504;28;20075;-68
2023/03/13 01:45:57;;;;;;;6.07;2.00;;;4.70;99.90;;;;;;5017316;28;20109;-68
2023/03/13 01:48:35;;;;;;;7.97;3.10;;;4.60;99.90;;;;;;5017674;28;20091;-68
2023/03/13 01:51:06;;;;;;;6.25;2.25;;;4.60;99.90;;;;;;5017157;28;20030;-68
2023/03/13 01:53:34;;;;;;;3.88;2.03;;;4.50;99.90;;;;;;5018059;28;20026;-68
2023/03/13 01:56:03;;;;;;;6.53;2.45;;;4.50;99.90;;;;;;5018118;28;20046;-68
2023/03/13 01:58:30;;;;;;;4.57;1.70;;;4.40;99.90;;;;;;5017906;28;20061;-68
2023/03/13 02:00:57;;;;;;;4.38;2.70;;;4.40;99.90;;;;;;5016962;28;20053;-68
2023/03/13 02:03:23;;;;;;;2.22;1.40;;;4.30;99.90;;;;;;5017092;28;20034;-68
2023/03/13 02:05:50;;;;;;;4.80;1.77;;;4.30;99.90;;;;;;5016788;28;20056;-68
2023/03/13 02:08:36;;;;;;;3.35;1.95;;;4.20;99.90;;;;;;5016801;28;20033;-68
2023/03/13 02:11:27;;;;;;;9.63;4.70;;;4.10;99.90;;;;;;5016660;28;20034;-68
2023/03/13 02:13:56;;;;;;;14.27;5.55;;;4.10;99.90;;;;;;5017104;28;20044;-68
2023/03/13 02:16:22;;;;;;;14.80;6.53;;;4.20;99.90;;;;;;5016033;28;20053;-68
2023/03/13 02:18:49;;;;;;;15.88;6.88;;;4.20;99.90;;;;;;5016153;28;20033;-68
2023/03/13 02:21:23;;;;;;;6.05;3.00;;;4.20;99.90;;;;;;5016926;28;20374;-68
2023/03/13 02:24:07;;;;;;;3.55;2.00;;;4.30;99.90;;;;;;5016400;28;20072;-68
2023/03/13 02:26:32;;;;;;;2.78;1.45;;;4.30;99.90;;;;;;5016472;28;20057;-68
2023/03/13 02:28:58;;;;;;;4.78;2.00;;;4.30;99.90;;;;;;5016127;28;20470;-68
2023/03/13 02:31:24;;;;;;;5.38;2.63;;;4.40;99.90;;;;;;5015245;28;20065;-68
2023/03/13 02:33:49;;;;;;;5.45;2.78;;;4.40;99.90;;;;;;5015576;28;20029;-68
2023/03/13 02:36:16;;;;;;;7.63;3.88;;;4.50;99.90;;;;;;5015804;28;20033;-68
2023/03/13 02:38:58;;;;;;;6.32;2.92;;;4.50;99.90;;;;;;5015618;28;20030;-68
2023/03/13 02:41:25;;;;;;;6.00;2.70;;;4.60;99.90;;;;;;5015216;28;20036;-68
2023/03/13 02:43:51;;;;;;;3.63;2.20;;;4.60;99.90;;;;;;5015376;28;20026;-68
2023/03/13 02:46:19;;;;;;;5.80;2.15;;;4.70;99.90;;;;;;5015184;28;20030;-68
2023/03/13 02:48:50;;;;;;;4.18;2.10;;;4.70;99.90;;;;;;5014990;28;20030;-68
2023/03/13 02:51:23;;;;;;;3.15;1.98;;;4.70;99.90;;;;;;5014881;28;20030;-68
2023/03/13 02:53:51;;;;;;;5.70;2.35;;;4.70;99.90;;;;;;5015132;28;20028;-68
2023/03/13 02:56:21;;;;;;;3.45;2.10;;;4.70;99.90;;;;;;5014052;28;20034;-68
2023/03/13 02:58:47;;;;;;;3.72;1.92;;;4.80;99.90;;;;;;5014499;28;20112;-68
2023/03/13 03:01:12;;;;;;;4.47;1.98;;;4.80;99.90;;;;;;5014889;28;20064;-68
2023/03/13 03:03:38;;;;;;;4.93;1.90;;;4.80;99.90;;;;;;5013350;28;20050;-68
2023/03/13 03:06:05;;;;;;;7.40;2.45;;;4.80;99.90;;;;;;5013658;28;20026;-68
2023/03/13 03:08:32;;;;;;;4.88;2.58;;;4.80;99.90;;;;;;5014781;28;20034;-68
2023/03/13 03:10:57;;;;;;;6.28;3.00;;;4.90;99.90;;;;;;5013916;28;20422;-68
2023/03/13 03:13:23;;;;;;;4.78;1.90;;;4.90;99.90;;;;;;5015468;28;20033;-68
2023/03/13 03:15:49;;;;;;;2.95;1.73;;;4.90;99.90;;;;;;5015430;28;20026;-68
2023/03/13 03:18:14;;;;;;;3.85;1.83;;;4.90;99.90;;;;;;5015104;28;20061;-68
2023/03/13 03:20:40;;;;;;;2.22;1.42;;;4.90;99.90;;;;;;5015642;28;20030;-68
2023/03/13 03:23:06;;;;;;;3.97;2.05;;;4.90;99.90;;;;;;5015211;28;20022;-68
2023/03/13 03:25:31;;;;;;;2.20;1.67;;;4.90;99.90;;;;;;5014712;28;20026;-68
2023/03/13 03:27:57;;;;;;;5.40;2.55;;;4.90;99.90;;;;;;5016226;28;20367;-68
2023/03/13 03:30:22;;;;;;;4.07;2.80;;;4.90;99.90;;;;;;5016066;28;20355;-68
2023/03/13 03:32:48;;;;;;;3.53;1.90;;;4.90;99.90;;;;;;5016232;28;20482;-68
2023/03/13 03:35:14;;;;;;;4.65;2.20;;;4.90;99.90;;;;;;5018072;28;20062;-68
2023/03/13 03:37:40;;;;;;;5.55;2.33;;;4.90;99.90;;;;;;5019071;28;20033;-68
2023/03/13 03:40:06;;;;;;;7.25;2.58;;;4.90;99.90;;;;;;5019854;28;20037;-68
2023/03/13 03:42:32;;;;;;;4.63;2.38;;;4.90;99.90;;;;;;5018064;28;20514;-68
2023/03/13 03:44:58;;;;;;;6.28;2.70;;;4.90;99.90;;;;;;5022711;28;20080;-68
2023/03/13 03:47:24;;;;;;;4.88;2.30;;;4.80;99.90;;;;;;5022267;28;20029;-68
2023/03/13 03:49:49;;;;;;;4.03;2.50;;;4.80;99.90;;;;;;5021930;28;20024;-68
2023/03/13 03:52:15;;;;;;;6.38;2.30;;;4.70;99.90;;;;;;5023139;28;20477;-68
2023/03/13 03:54:40;;;;;;;4.93;2.10;;;4.70;99.90;;;;;;5021572;28;20386;-68
2023/03/13 03:57:06;;;;;;;3.80;1.90;;;4.70;99.90;;;;;;5020737;28;20022;-68
2023/03/13 03:59:32;;;;;;;3.38;1.85;;;4.60;99.90;;;;;;5020465;28;20029;-68
2023/03/13 04:01:58;;;;;;;3.30;2.10;;;4.60;99.90;;;;;;5021898;28;20026;-68
2023/03/13 04:04:23;;;;;;;3.83;1.90;;;4.50;99.90;;;;;;5019745;28;20033;-68
2023/03/13 04:06:49;;;;;;;4.80;2.22;;;4.50;99.90;;;;;;5021423;28;20386;-68
2023/03/13 04:09:15;;;;;;;4.97;2.50;;;4.50;99.90;;;;;;5019993;28;20030;-68
2023/03/13 04:11:40;;;;;;;7.57;2.25;;;4.60;99.90;;;;;;5019623;28;20026;-68
2023/03/13 04:14:06;;;;;;;5.15;2.50;;;4.60;99.90;;;;;;5020770;28;20030;-68
2023/03/13 04:16:32;;;;;;;4.68;2.30;;;4.60;99.90;;;;;;5020312;28;20025;-68
2023/03/13 04:18:57;;;;;;;4.82;2.53;;;4.60;99.90;;;;;;5020594;28;20026;-68
2023/03/13 04:21:23;;;;;;;6.22;2.60;;;4.60;99.90;;;;;;5020259;28;20065;-68
2023/03/13 04:23:49;;;;;;;4.70;2.05;;;4.60;99.90;;;;;;5020882;28;20041;-68
2023/03/13 04:26:14;;;;;;;4.32;2.35;;;4.60;99.90;;;;;;5020170;28;20359;-68
2023/03/13 04:28:40;;;;;;;7.05;1.90;;;4.60;99.90;;;;;;5020365;28;20103;-68
2023/03/13 04:31:06;;;;;;;4.20;2.50;;;4.60;99.90;;;;;;5018468;28;20050;-68
2023/03/13 04:33:32;;;;;;;5.68;2.60;;;4.60;99.90;;;;;;5018268;28;20041;-68
2023/03/13 04:35:57;;;;;;;7.30;2.33;;;4.60;99.90;;;;;;5019048;28;20026;-68
2023/03/13 04:38:23;;;;;;;7.53;2.72;;;4.60;99.90;;;;;;5019517;28;20044;-68
2023/03/13 04:40:48;;;;;;;9.32;2.20;;;4.60;99.90;;;;;;5019190;28;20030;-68
2023/03/13 04:43:14;;;;;;;6.22;2.50;;;4.60;99.90;;;;;;5019002;28;20384;-68
2023/03/13 04:45:40;;;;;;;6.38;2.40;;;4.60;99.90;;;;;;5019907;28;20033;-69
2023/03/13 04:48:05;;;;;;;4.45;2.20;;;4.60;99.90;;;;;;5019075;28;20116;-68
2023/03/13 04:50:31;;;;;;;8.10;2.67;;;4.60;99.90;;;;;;5019609;28;20030;-68
2023/03/13 04:52:57;;;;;;;6.72;3.28;;;4.50;99.90;;;;;;5018877;28;20029;-68
2023/03/13 04:55:22;;;;;;;15.68;6.93;;;4.50;99.90;;;;;;5018459;28;20025;-68
2023/03/13 04:57:48;;;;;;;10.65;5.63;;;4.50;99.90;;;;;;5019878;28;20037;-68
2023/03/13 05:00:14;;;;;;;7.57;3.83;;;4.50;99.90;;;;;;5019353;28;20032;-68
2023/03/13 05:02:40;;;;;;;8.80;3.78;;;4.50;99.90;;;;;;5018377;28;20022;-68
2023/03/13 05:05:06;;;;;;;4.63;2.83;;;4.50;99.90;;;;;;5018332;28;20390;-68
2023/03/13 05:07:31;;;;;;;7.93;3.00;;;4.40;99.90;;;;;;5019382;28;20022;-68
2023/03/13 05:09:57;;;;;;;8.23;2.50;;;4.40;99.90;;;;;;5019726;28;20030;-68
2023/03/13 05:12:23;;;;;;;12.05;3.50;;;4.40;99.90;;;;;;5019929;28;20630;-69
2023/03/13 05:14:49;;;;;;;9.50;3.15;;;4.40;99.90;;;;;;5019012;28;20022;-69
2023/03/13 05:17:16;;;;;;;12.48;3.92;;;4.40;99.90;;;;;;5018577;28;20480;-68
2023/03/13 05:19:42;;;;;;;9.90;3.45;;;4.30;99.90;;;;;;5018081;28;20466;-68
2023/03/13 05:22:07;;;;;;;6.47;2.80;;;4.30;99.90;;;;;;5020532;28;20041;-68
2023/03/13 05:24:33;;;;;;;8.30;3.38;;;4.30;99.90;;;;;;5017076;28;20083;-67
2023/03/13 05:26:59;;;;;;;11.90;3.55;;;4.30;99.90;;;;;;5017498;28;20152;-67
2023/03/13 05:29:25;;;;;;;11.82;3.83;;;4.30;99.90;;;;;;5016494;28;20033;-67
2023/03/13 05:31:51;;;;;;;4.57;2.67;;;4.30;99.90;;;;;;5017895;28;20402;-68
2023/03/13 05:34:17;;;;;;;7.45;3.25;;;4.30;99.90;;;;;;5017621;28;20030;-68
2023/03/13 05:36:42;;;;;;;9.30;3.53;;;4.30;99.90;;;;;;5018543;28;20426;-67
2023/03/13 05:39:08;;;;;;;8.00;3.38;;;4.30;99.90;;;;;;5017152;28;20454;-68
2023/03/13 05:41:34;;;;;;;9.43;3.30;;;4.20;99.90;;;;;;5018103;28;20038;-67
2023/03/13 05:43:59;;;;;;;6.63;2.95;;;4.30;99.90;;;;;;5018327;28;20525;-68
2023/03/13 05:46:25;;;;;;;8.10;3.38;;;4.30;99.90;;;;;;5016845;28;20057;-67
2023/03/13 05:48:51;;;;;;;8.65;3.08;;;4.30;99.90;;;;;;5018069;28;20489;-68
2023/03/13 05:51:17;;;;;;;10.60;3.88;;;4.30;99.90;;;;;;5018071;28;20080;-67
2023/03/13 05:53:43;;;;;;;9.65;3.10;;;4.40;99.90;;;;;;5017424;28;20026;-68
2023/03/13 05:56:09;;;;;;;8.05;3.40;;;4.40;99.90;;;;;;5015049;28;20037;-68
2023/03/13 05:58:35;;;;;;;9.52;2.85;;;4.50;99.90;;;;;;5014946;28;20179;-68
2023/03/13 06:01:08;;;;;;;5.38;2.53;;;4.50;99.90;;;;;;5018966;28;20053;-71
2023/03/13 06:03:33;;;;;;;9.60;2.97;;;4.50;99.90;;;;;;5010656;28;20415;-68
2023/03/13 06:05:59;;;;;;;12.52;3.30;;;4.60;99.90;;;;;;5015742;28;20037;-69
2023/03/13 06:08:25;;;;;;;6.60;3.78;;;4.60;99.90;;;;;;5014482;28;20123;-68
2023/03/13 06:10:50;;;;;;;11.55;4.28;;;4.70;99.90;;;;;;5013358;28;20022;-68
2023/03/13 06:13:16;;;;;;;11.75;5.43;;;4.80;99.90;;;;;;5013644;28;20026;-68
2023/03/13 06:15:42;;;;;;;14.88;5.03;;;4.80;99.90;;;;;;5014025;28;20026;-68
2023/03/13 06:18:07;;;;;;;12.88;5.07;;;4.90;99.90;;;;;;5011417;28;20044;-68
2023/03/13 06:20:33;;;;;;;8.55;3.60;;;4.90;99.90;;;;;;5009465;28;20057;-68
2023/03/13 06:22:58;;;;;;;8.77;3.90;;;5.00;99.90;;;;;;5016415;28;20045;-68
2023/03/13 06:25:24;;;;;;;8.93;3.53;;;5.10;99.90;;;;;;5014900;28;20025;-68
2023/03/13 06:27:50;;;;;;;8.77;3.30;;;5.20;99.90;;;;;;5013297;28;20040;-68
2023/03/13 06:30:16;;;;;;;5.22;3.03;;;5.30;99.90;;;;;;5012526;28;21170;-68
2023/03/13 06:32:42;;;;;;;10.40;3.85;;;5.40;99.90;;;;;;5013432;28;20076;-71
2023/03/13 06:35:08;;;;;;;10.25;3.95;;;5.50;99.90;;;;;;5013493;28;21296;-69
2023/03/13 06:37:33;;;;;;;6.03;3.53;;;5.60;99.90;;;;;;5010691;28;20685;-68
2023/03/13 06:39:59;;;;;;;9.52;4.22;;;5.60;99.90;;;;;;5012657;28;20177;-71
2023/03/13 06:42:25;;;;;;;10.60;3.47;;;5.60;99.90;;;;;;5014520;28;20057;-66
2023/03/13 06:44:50;;;;;;;8.02;3.60;;;5.70;99.90;;;;;;5014685;28;20037;-66
2023/03/13 06:47:16;;;;;;;8.82;3.75;;;5.80;99.90;;;;;;5013713;28;20041;-67
2023/03/13 06:49:42;;;;;;;8.57;3.70;;;6.00;99.90;;;;;;5015044;28;20474;-67
2023/03/13 06:52:07;;;;;;;9.05;3.90;;;6.30;99.90;;;;;;5015735;28;20481;-68
2023/03/13 06:54:33;;;;;;;6.72;3.38;;;6.50;99.90;;;;;;5014648;28;20052;-68
2023/03/13 06:56:59;;;;;;;7.05;3.60;;;6.80;99.90;;;;;;5013586;28;20444;-68
2023/03/13 06:59:24;;;;;;;8.82;3.72;;;7.00;99.90;;;;;;5014906;28;20030;-68
2023/03/13 07:01:50;;;;;;;12.63;3.55;;;7.30;99.90;;;;;;5015160;28;20026;-68
2023/03/13 07:04:15;;;;;;;9.93;3.45;;;7.60;99.90;;;;;;5014226;28;20122;-68
2023/03/13 07:06:41;;;;;;;5.13;2.53;;;7.80;99.90;;;;;;5015539;28;20109;-68
2023/03/13 07:09:09;;;;;;;8.32;2.90;;;8.10;99.90;;;;;;5014466;28;20030;-69
2023/03/13 07:11:34;;;;;;;5.65;3.08;;;8.60;99.90;;;;;;5014233;28;20485;-68
2023/03/13 07:14:00;;;;;;;10.65;2.65;;;9.10;99.90;;;;;;5013223;28;20030;-68
2023/03/13 07:16:26;;;;;;;6.82;2.88;;;9.40;99.90;;;;;;5013148;28;20022;-68
2023/03/13 07:18:52;;;;;;;12.77;3.10;;;9.80;99.90;;;;;;5013176;28;20029;-68
2023/03/13 07:21:18;;;;;;;5.70;2.50;;;10.00;99.90;;;;;;5013223;28;20026;-68
2023/03/13 07:23:43;;;;;;;19.20;3.20;;;10.10;99.90;;;;;;5013984;28;20030;-68
2023/03/13 07:26:12;;;;;;;7.97;2.88;;;10.10;99.90;;;;;;5013959;28;20493;-68
2023/03/13 07:28:38;;;;;;;6.28;2.38;;;10.00;99.90;;;;;;5012944;28;20060;-68
2023/03/13 07:31:11;;;;;;;7.32;2.50;;;10.10;99.90;;;;;;5012776;28;20057;-68
2023/03/13 07:33:37;;;;;;;8.68;2.10;;;10.10;99.90;;;;;;5014005;28;20026;-68
2023/03/13 07:36:03;;;;;;;5.38;2.13;;;10.10;99.90;;;;;;5014977;28;20032;-69
2023/03/13 07:38:29;;;;;;;12.98;2.83;;;10.00;99.90;;;;;;5015852;28;20053;-69
2023/03/13 07:40:56;;;;;;;24.20;4.05;;;10.00;99.90;;;;;;5014461;28;20022;-69
2023/03/13 07:43:23;;;;;;;9.38;3.10;;;10.00;99.90;;;;;;5015111;28;20034;-68
2023/03/13 07:46:01;;;;;;;14.30;4.05;;;10.00;99.90;;;;;;5013108;28;20033;-68
2023/03/13 07:48:38;;;;;;;11.82;2.97;;;10.10;99.90;;;;;;5012588;28;20065;-68
2023/03/13 07:51:06;;;;;;;28.00;5.70;;;10.20;99.90;;;;;;5013041;28;20026;-68
2023/03/13 07:53:32;;;;;;;11.13;4.65;;;10.30;99.90;;;;;;5012795;28;20030;-67
2023/03/13 07:56:06;;;;;;;19.05;4.63;;;10.40;99.90;;;;;;5012558;28;20429;-67
2023/03/13 07:58:34;;;;;;;20.95;4.60;;;10.90;99.90;;;;;;5014149;28;20034;-68
2023/03/13 08:01:06;;;;;;;13.30;3.80;;;11.40;99.90;;;;;;5013668;28;20096;-68
2023/03/13 08:03:32;;;;;;;12.82;3.65;;;11.80;99.90;;;;;;5013462;28;20088;-68
2023/03/13 08:06:02;;;;;;;11.50;3.88;;;12.20;99.90;;;;;;5013780;28;20025;-68
2023/03/13 08:08:29;;;;;;;12.85;4.07;;;12.90;99.90;;;;;;5012339;28;20033;-68
2023/03/13 08:11:06;;;;;;;8.02;4.10;;;13.50;97.80;;;;;;5013212;28;20480;-68
2023/03/13 08:13:32;;;;;;;17.20;4.57;;;13.80;93.70;;;;;;5012472;28;20030;-68
2023/03/13 08:16:14;;;;;;;11.25;5.65;;;13.80;92.60;;;;;;5012220;28;20026;-68
2023/03/13 08:18:43;;;;;;;7.05;2.95;;;13.60;91.50;;;;;;5012728;28;20033;-68
2023/03/13 08:21:11;;;;;;;6.88;3.97;;;13.40;91.70;;;;;;5013427;28;20044;-68
2023/03/13 08:23:38;;;;;;;10.65;3.28;;;13.50;91.30;;;;;;5012563;28;20491;-68
2023/03/13 08:26:09;;;;;;;4.95;2.63;;;13.70;90.60;;;;;;5012089;28;20229;-68
2023/03/13 08:28:36;;;;;;;10.30;3.17;;;14.00;89.40;;;;;;5013631;28;20045;-68
2023/03/13 08:31:12;;;;;;;8.05;3.00;;;14.10;87.20;;;;;;5014724;28;20116;-68
2023/03/13 08:33:39;;;;;;;9.90;3.38;;;14.00;86.30;;;;;;5017333;28;20026;-69
2023/03/13 08:36:11;;;;;;;10.07;2.92;;;14.00;86.50;;;;;;5015870;28;20022;-68
2023/03/13 08:38:37;;;;;;;9.07;3.28;;;13.90;85.30;;;;;;5017213;28;20157;-68
2023/03/13 08:41:04;;;;;;;19.13;3.80;;;14.00;85.30;;;;;;5016444;28;20030;-68
2023/03/13 08:43:29;;;;;;;7.68;3.25;;;14.20;84.30;;;;;;5015536;28;20053;-69
2023/03/13 08:45:55;;;;;;;6.43;2.40;;;14.60;82.90;;;;;;5015589;28;20022;-69
2023/03/13 08:48:21;;;;;;;12.20;3.25;;;14.90;80.60;;;;;;5016668;28;20378;-69
2023/03/13 08:50:57;;;;;;;8.80;2.90;;;15.20;78.00;;;;;;5016438;28;20081;-68
2023/03/13 08:53:23;;;;;;;8.80;2.90;;;15.20;76.20;;;;;;5016076;28;20026;-69
2023/03/13 08:55:52;;;;;;;18.58;3.38;;;15.60;74.90;;;;;;5016859;28;20088;-69
2023/03/13 08:58:18;;;;;;;7.80;3.00;;;15.90;73.60;;;;;;5015342;28;20084;-69
2023/03/13 09:00:43;;;;;;;6.38;2.20;;;16.10;71.60;;;;;;5016502;28;20029;-69
2023/03/13 09:03:09;;;;;;;9.30;2.22;;;15.90;69.40;;;;;;5015220;28;20064;-69
2023/03/13 09:05:37;;;;;;;11.07;2.30;;;15.60;70.60;;;;;;5015154;28;20076;-68
2023/03/13 09:08:02;;;;;;;5.40;2.42;;;15.30;69.50;;;;;;5016565;28;20034;-69
2023/03/13 09:10:28;;;;;;;9.40;2.10;;;15.30;70.30;;;;;;5015791;28;20018;-69
2023/03/13 09:12:54;;;;;;;5.70;1.92;;;15.10;69.70;;;;;;5015968;28;20025;-68
2023/03/13 09:15:19;;;;;;;4.20;1.30;;;15.10;69.70;;;;;;5014853;28;20026;-68
2023/03/13 09:17:45;;;;;;;9.65;1.70;;;15.30;67.90;;;;;;5016135;28;20034;-68
2023/03/13 09:20:11;;;;;;;3.40;1.30;;;15.30;67.20;;;;;;5016015;28;20065;-69
2023/03/13 09:22:36;;;;;;;10.82;1.80;;;15.40;66.80;;;;;;5016052;28;20072;-69
2023/03/13 09:25:02;;;;;;;11.18;2.00;;;15.70;66.20;;;;;;5015725;28;20037;-69
2023/03/13 09:27:28;;;;;;;3.78;1.50;;;15.90;65.10;;;;;;5014775;28;20026;-69
2023/03/13 09:29:54;;;;;;;5.85;1.60;;;16.00;64.40;;;;;;5014724;28;20528;-69
2023/03/13 09:32:19;;;;;;;4.53;1.40;;;16.10;62.70;;;;;;5014370;28;20470;-69
2023/03/13 09:34:46;;;;;;;3.47;1.50;;;16.20;62.70;;;;;;5014464;28;20492;-69
2023/03/13 09:37:11;;;;;;;5.88;1.83;;;16.40;61.80;;;;;;5015756;28;20026;-69
2023/03/13 09:39:37;;;;;;;3.88;1.33;;;16.60;60.70;;;;;;5015506;28;20371;-70
2023/03/13 09:42:31;;;;;;;9.65;1.20;;;16.60;59.80;;;;;;5013449;28;20164;-69
2023/03/13 09:45:11;;;;;;;2.38;1.10;;;16.80;59.00;;;;;;5015442;28;20458;-69
2023/03/13 09:47:48;;;;;;;6.40;1.63;;;16.80;58.60;;;;;;5015892;28;20519;-69
2023/03/13 09:50:35;;;;;;;3.25;1.00;;;16.90;58.50;;;;;;5015632;28;20094;-69
2023/03/13 09:53:14;;;;;;;3.05;0.98;;;17.00;56.80;;;;;;5015741;28;20528;-69
2023/03/13 09:55:43;;;;;;;5.50;1.67;;;17.20;55.90;;;;;;5015605;28;20030;-69
2023/03/13 09:58:22;;;;;;;4.72;1.48;;;17.20;55.60;;;;;;5015127;28;20474;-69
2023/03/13 10:00:56;;;;;;;3.08;1.45;;;17.30;55.30;;;;;;5015529;28;20029;-69
2023/03/13 10:03:27;;;;;;;3.97;0.82;;;17.50;54.10;;;;;;5015467;28;20033;-69
2023/03/13 10:06:11;;;;;;;3.90;0.90;;;17.60;52.50;;;;;;5014169;28;20496;-69
2023/03/13 10:08:37;;;;;;;6.18;1.00;;;17.50;52.20;;;;;;5013944;28;20087;-68
2023/03/13 10:11:09;;;;;;;5.30;1.10;;;17.70;51.80;;;;;;5015592;28;20097;-69
2023/03/13 10:13:52;;;;;;;1.00;0.95;;;17.70;51.80;;;;;;5015434;28;20029;-68
2023/03/13 10:16:46;;;;;;;1.17;0.82;;;17.20;50.80;;;;;;5013569;28;20108;-69
2023/03/13 10:19:15;;;;;;;5.05;1.33;;;17.20;51.40;;;;;;5015036;28;20037;-69
2023/03/13 10:21:43;;;;;;;2.22;1.08;;;17.30;51.80;;;;;;5014741;28;20022;-69
2023/03/13 10:24:30;;;;;;;8.63;2.33;;;17.60;52.40;;;;;;5014978;28;20489;-69
2023/03/13 10:26:57;;;;;;;4.60;2.28;;;17.60;54.10;;;;;;5013663;28;20037;-69
2023/03/13 10:29:27;;;;;;;4.55;2.03;;;17.70;53.90;;;;;;5014583;28;20474;-69
2023/03/13 10:32:01;;;;;;;6.03;2.67;;;17.70;53.70;;;;;;5014971;28;20053;-69
2023/03/13 10:34:43;;;;;;;5.70;2.90;;;17.60;54.10;;;;;;5014771;28;20161;-69
2023/03/13 10:37:13;;;;;;;3.67;2.50;;;17.60;53.60;;;;;;5013490;28;20105;-69
2023/03/13 10:39:39;;;;;;;6.22;3.00;;;17.30;53.60;;;;;;5014751;28;20100;-69
2023/03/13 10:42:20;;;;;;;3.92;3.10;;;17.40;53.80;;;;;;5014940;28;20481;-69
2023/03/13 10:44:45;;;;;;;9.70;4.00;;;17.60;52.90;;;;;;5014458;28;20037;-69
2023/03/13 10:47:14;;;;;;;6.13;3.33;;;17.60;52.40;;;;;;5014563;28;20030;-69
2023/03/13 10:49:56;;;;;;;5.50;2.85;;;17.60;52.50;;;;;;5014489;28;20037;-69
2023/03/13 10:52:43;;;;;;;5.57;3.00;;;17.50;52.40;;;;;;5012917;28;20030;-68
2023/03/13 10:55:17;;;;;;;7.07;3.13;;;17.40;52.50;;;;;;5014109;28;20481;-70
2023/03/13 10:57:55;;;;;;;5.13;2.90;;;17.20;52.70;;;;;;5013214;28;20029;-68
2023/03/13 11:00:29;;;;;;;7.65;3.40;;;16.90;53.00;;;;;;5013135;28;20026;-69
2023/03/13 11:02:55;;;;;;;6.00;3.05;;;16.50;53.50;;;;;;5014297;28;20021;-70
2023/03/13 11:05:24;;;;;;;9.55;4.45;;;16.20;53.80;;;;;;5012918;28;20026;-69
2023/03/13 11:07:52;;;;;;;3.28;2.78;;;15.90;54.60;;;;;;5012917;28;20030;-69
2023/03/13 11:10:20;;;;;;;9.60;4.03;;;15.90;55.30;;;;;;5014180;28;20071;-70
2023/03/13 11:12:50;;;;;;;8.35;3.40;;;15.90;55.30;;;;;;5014192;28;20105;-62
2023/03/13 11:15:28;;;;;;;6.75;4.57;;;16.00;55.90;;;;;;5012774;28;20058;-62
2023/03/13 11:18:22;;;;;;;7.60;4.15;;;16.10;56.30;;;;;;5014625;28;20036;-62
2023/03/13 11:20:48;;;;;;;10.27;3.55;;;16.20;55.80;;;;;;5014143;28;20034;-63
2023/03/13 11:23:25;;;;;;;7.80;3.42;;;16.30;55.20;;;;;;5014192;28;20054;-62
2023/03/13 11:26:09;;;;;;;8.55;3.10;;;16.20;55.20;;;;;;5013992;28;20022;-63
2023/03/13 11:28:54;;;;;;;5.38;3.42;;;16.10;55.20;;;;;;5013960;28;20474;-70
2023/03/13 11:31:34;;;;;;;9.98;3.88;;;16.20;54.80;;;;;;5012464;28;20053;-69
2023/03/13 11:34:18;;;;;;;6.25;3.28;;;16.30;54.70;;;;;;5012437;28;20025;-69
2023/03/13 11:37:01;;;;;;;5.57;3.45;;;16.40;54.40;;;;;;5013863;28;20032;-68
2023/03/13 11:39:26;;;;;;;12.60;4.13;;;16.40;54.30;;;;;;5012611;28;20038;-69
2023/03/13 11:42:17;;;;;;;6.47;3.80;;;16.40;54.40;;;;;;5012625;28;20033;-69
2023/03/13 11:45:05;;;;;;;7.10;3.50;;;16.20;54.30;;;;;;5012789;28;20087;-69
2023/03/13 11:47:55;;;;;;;6.05;3.83;;;16.10;54.50;;;;;;5012885;28;20394;-69
2023/03/13 11:50:42;;;;;;;7.82;3.70;;;15.90;55.50;;;;;;5012562;28;20049;-69
2023/03/13 11:53:45;;;;;;;10.23;3.58;;;15.70;55.60;;;;;;5012175;28;20030;-69
2023/03/13 11:56:23;;;;;;;9.75;4.03;;;15.70;55.80;;;;;;5012093;28;20065;-69
2023/03/13 11:59:42;;;;;;;11.80;3.95;;;15.70;55.80;;;;;;5017535;28;20061;-69
2023/03/13 12:02:27;;;;;;;7.72;3.72;;;15.60;55.50;;;;;;4972271;28;20155;-69
2023/03/13 12:04:56;;;;;;;6.65;3.63;;;15.60;55.50;;;;;;5034802;28;20021;-69
2023/03/13 12:07:33;;;;;;;15.60;4.37;;;15.40;55.90;;;;;;5036980;28;20048;-69
2023/03/13 12:10:08;;;;;;;8.52;3.65;;;15.30;56.60;;;;;;5035901;28;20834;-69
2023/03/13 12:12:43;;;;;;;10.13;3.85;;;15.30;56.30;;;;;;5035989;28;20025;-69
2023/03/13 12:15:26;;;;;;;5.47;3.45;;;15.20;56.70;;;;;;5037141;28;20025;-69
2023/03/13 12:18:34;;;;;;;15.13;3.83;;;15.30;56.80;;;;;;5036935;28;20509;-70
2023/03/13 12:21:12;;;;;;;7.43;3.28;;;15.60;56.60;;;;;;4959647;28;20125;-71
2023/03/13 12:24:05;;;;;;;9.32;3.25;;;15.90;55.90;;;;;;5025250;28;20041;-70
2023/03/13 12:26:56;;;;;;;8.30;3.63;;;16.10;55.20;;;;;;5037127;28;20029;-70
2023/03/13 12:29:28;;;;;;;8.60;3.22;;;16.30;55.20;;;;;;5024898;28;20510;-71
2023/03/13 12:32:01;;;;;;;35.42;3.63;;;16.30;54.00;;;;;;5036674;28;20103;-71
2023/03/13 12:34:45;;;;;;;7.95;3.28;;;16.40;54.30;;;;;;5036297;28;20021;-70
2023/03/13 12:37:23;;;;;;;8.40;3.30;;;16.50;54.00;;;;;;5035397;28;20120;-70
2023/03/13 12:40:06;;;;;;;9.80;2.78;;;16.60;53.70;;;;;;5036704;28;20030;-71
2023/03/13 12:42:54;;;;;;;5.82;2.78;;;16.70;53.90;;;;;;5036708;28;20025;-71
2023/03/13 12:45:24;;;;;;;8.73;2.90;;;16.60;53.40;;;;;;5036157;28;20080;-70
2023/03/13 12:48:27;;;;;;;8.30;3.10;;;16.50;53.50;;;;;;5035222;28;20473;-70
2023/03/13 12:51:18;;;;;;;5.35;2.45;;;16.30;53.70;;;;;;5036173;28;20375;-70
2023/03/13 12:54:20;;;;;;;6.22;2.17;;;16.10;54.20;;;;;;5036108;28;20079;-71
2023/03/13 12:57:28;;;;;;;10.85;2.63;;;16.00;54.60;;;;;;5035669;28;20025;-70
2023/03/13 13:00:04;;;;;;;7.97;2.70;;;15.90;55.10;;;;;;5036131;28;20032;-70
2023/03/13 13:02:31;;;;;;;7.43;2.45;;;15.70;55.10;;;;;;5035022;28;20437;-70
2023/03/13 13:05:00;;;;;;;6.95;2.58;;;15.60;55.20;;;;;;5036203;28;20116;-70
2023/03/13 13:07:33;;;;;;;;;;;15.50;55.70;;;;;;5036875;28;20069;-70